createdAt,value
2018-12-06T00:02:16.962Z,2.74
2018-12-06T00:04:50.612Z,2.81
2018-12-06T00:07:20.101Z,2.88
2018-12-06T00:09:49.716Z,2.86
2018-12-06T00:12:44.752Z,2.84
2018-12-06T00:15:29.132Z,2.85
2018-12-06T00:17:59.378Z,2.93
2018-12-06T00:20:34.532Z,2.86
2018-12-06T00:23:07.298Z,2.88
2018-12-06T00:25:55.430Z,2.84
2018-12-06T00:28:30.756Z,2.85
2018-12-06T00:34:28.328Z,2.94
2018-12-06T00:37:20.164Z,3.02
2018-12-06T00:40:04.696Z,3.01
2018-12-06T00:42:40.082Z,3.04
2018-12-06T00:45:28.616Z,3.05
2018-12-06T00:47:58.346Z,3.14
2018-12-06T00:50:27.935Z,3.24
2018-12-06T00:53:05.351Z,3.23
2018-12-06T00:55:38.803Z,3.24
2018-12-06T01:01:21.611Z,3.31
2018-12-06T01:03:50.983Z,3.32
2018-12-06T01:09:19.195Z,3.41
2018-12-06T01:17:50.507Z,3.42
2018-12-06T01:20:25.341Z,3.43
2018-12-06T01:23:02.087Z,3.49
2018-12-06T01:31:42.745Z,3.50
2018-12-06T01:34:23.959Z,3.48
2018-12-06T01:36:59.240Z,3.53
2018-12-06T01:39:33.303Z,3.52
2018-12-06T01:42:03.271Z,3.51
2018-12-06T01:44:47.043Z,3.52
2018-12-06T01:47:16.600Z,3.52
2018-12-06T01:49:54.417Z,3.63
2018-12-06T01:52:42.537Z,3.65
2018-12-06T01:55:12.887Z,3.60
2018-12-06T01:57:48.586Z,3.69
2018-12-06T02:00:21.906Z,3.64
2018-12-06T02:03:04.407Z,3.64
2018-12-06T02:11:34.094Z,3.62
2018-12-06T02:14:09.010Z,3.64
2018-12-06T02:16:54.706Z,3.71
2018-12-06T02:19:39.010Z,3.77
2018-12-06T02:22:08.901Z,3.79
2018-12-06T02:24:38.937Z,3.76
2018-12-06T02:27:08.317Z,3.82
2018-12-06T02:29:42.898Z,3.79
2018-12-06T02:32:12.638Z,3.80
2018-12-06T02:34:41.997Z,3.81
2018-12-06T02:37:11.676Z,3.76
2018-12-06T02:39:41.137Z,3.69
2018-12-06T02:42:10.885Z,3.70
2018-12-06T02:44:40.491Z,3.67
2018-12-06T02:47:09.878Z,3.70
2018-12-06T02:49:39.617Z,3.63
2018-12-06T02:52:08.965Z,3.63
2018-12-06T02:54:38.737Z,3.67
2018-12-06T02:57:08.095Z,3.64
2018-12-06T02:59:37.826Z,3.57
2018-12-06T03:02:07.185Z,3.52
2018-12-06T03:04:36.858Z,3.48
2018-12-06T03:07:10.194Z,3.59
2018-12-06T03:09:43.178Z,3.60
2018-12-06T03:12:18.489Z,3.65
2018-12-06T03:15:01.683Z,3.67
2018-12-06T03:17:49.010Z,3.67
2018-12-06T03:20:27.371Z,3.68
2018-12-06T03:23:02.545Z,3.63
2018-12-06T03:25:39.233Z,3.70
2018-12-06T03:28:11.874Z,3.68
2018-12-06T03:33:49.540Z,3.59
2018-12-06T03:36:18.912Z,3.61
2018-12-06T03:38:48.307Z,3.62
2018-12-06T03:41:18.104Z,3.62
2018-12-06T03:43:47.564Z,3.67
2018-12-06T03:46:17.401Z,3.66
2018-12-06T03:48:46.822Z,3.69
2018-12-06T03:51:16.222Z,3.64
2018-12-06T03:53:45.956Z,3.66
2018-12-06T03:56:15.662Z,3.71
2018-12-06T03:58:45.524Z,3.72
2018-12-06T04:01:15.251Z,3.73
2018-12-06T04:21:22.917Z,3.94
2018-12-06T04:39:20.882Z,4.25
2018-12-06T04:47:16.865Z,4.34
2018-12-06T05:05:49.575Z,4.48
2018-12-06T05:11:19.244Z,4.49
2018-12-06T05:13:48.994Z,4.53
2018-12-06T05:16:18.382Z,4.52
2018-12-06T05:18:47.705Z,4.50
2018-12-06T05:21:17.594Z,4.52
2018-12-06T05:23:47.446Z,4.45
2018-12-06T05:26:17.184Z,4.54
2018-12-06T05:31:52.485Z,4.51
2018-12-06T05:34:50.343Z,4.47
2018-12-06T05:37:20.062Z,4.46
2018-12-06T05:39:49.802Z,4.43
2018-12-06T05:42:19.334Z,4.42
2018-12-06T05:44:49.125Z,4.38
2018-12-06T05:47:18.986Z,4.42
2018-12-06T05:49:48.840Z,4.42
2018-12-06T05:52:18.629Z,4.42
2018-12-06T05:54:48.341Z,4.47
2018-12-06T05:57:18.148Z,4.49
2018-12-06T05:59:47.584Z,4.51
2018-12-06T06:02:17.369Z,4.54
2018-12-06T06:04:46.800Z,4.61
2018-12-06T06:07:16.527Z,4.55
2018-12-06T06:10:23.597Z,4.57
2018-12-06T06:12:53.062Z,4.52
2018-12-06T06:15:23.520Z,4.59
2018-12-06T06:17:53.228Z,4.52
2018-12-06T06:20:22.653Z,4.57
2018-12-06T06:22:52.104Z,4.56
2018-12-06T06:25:21.897Z,4.60
2018-12-06T06:27:51.313Z,4.66
2018-12-06T06:30:21.035Z,4.53
2018-12-06T06:32:50.763Z,4.55
2018-12-06T06:35:20.464Z,4.67
2018-12-06T06:37:50.258Z,4.65
2018-12-06T06:40:25.452Z,4.69
2018-12-06T06:42:55.225Z,4.70
2018-12-06T06:45:24.990Z,4.67
2018-12-06T06:47:55.389Z,4.69
2018-12-06T06:50:25.269Z,4.75
2018-12-06T06:52:58.736Z,4.79
2018-12-06T06:55:28.612Z,4.73
2018-12-06T06:58:08.405Z,4.69
2018-12-06T07:00:41.249Z,4.70
2018-12-06T07:03:11.136Z,4.64
2018-12-06T07:05:40.996Z,4.69
2018-12-06T07:08:10.940Z,4.78
2018-12-06T07:10:40.936Z,4.86
2018-12-06T07:13:10.869Z,4.86
2018-12-06T07:15:40.807Z,4.87
2018-12-06T07:18:15.532Z,4.83
2018-12-06T07:20:48.040Z,4.83
2018-12-06T07:23:17.853Z,4.86
2018-12-06T07:25:51.154Z,4.91
2018-12-06T07:28:20.881Z,4.94
2018-12-06T07:30:54.639Z,4.97
2018-12-06T07:33:24.348Z,4.99
2018-12-06T07:35:54.105Z,5.03
2018-12-06T07:38:25.207Z,5.12
2018-12-06T07:40:54.887Z,5.23
2018-12-06T07:43:24.546Z,5.25
2018-12-06T07:45:58.334Z,5.30
2018-12-06T07:48:29.046Z,5.24
2018-12-06T07:51:01.929Z,5.33
2018-12-06T07:53:31.664Z,5.43
2018-12-06T07:56:01.400Z,5.46
2018-12-06T07:58:34.568Z,5.41
2018-12-06T08:01:18.214Z,5.41
2018-12-06T08:03:48.004Z,5.47
2018-12-06T08:06:17.717Z,5.49
2018-12-06T08:08:47.478Z,5.55
2018-12-06T08:11:17.252Z,5.63
2018-12-06T08:13:54.598Z,5.59
2018-12-06T08:16:30.118Z,5.67
2018-12-06T08:18:59.934Z,5.75
2018-12-06T08:21:29.685Z,5.78
2018-12-06T08:23:59.508Z,5.76
2018-12-06T08:26:29.220Z,5.81
2018-12-06T08:28:59.103Z,5.91
2018-12-06T08:34:34.968Z,6.20
2018-12-06T08:37:09.983Z,6.31
2018-12-06T08:39:39.804Z,6.33
2018-12-06T08:42:09.627Z,6.42
2018-12-06T08:44:39.598Z,6.56
2018-12-06T08:47:09.392Z,6.79
2018-12-06T08:50:01.775Z,6.93
2018-12-06T08:52:31.699Z,7.09
2018-12-06T08:55:01.776Z,7.09
2018-12-06T08:57:33.038Z,7.02
2018-12-06T09:00:02.972Z,6.96
2018-12-06T09:02:38.051Z,6.77
2018-12-06T09:05:08.033Z,6.37
2018-12-06T09:07:38.126Z,6.71
2018-12-06T09:10:09.193Z,6.74
2018-12-06T09:12:38.968Z,6.72
2018-12-06T09:15:14.617Z,6.64
2018-12-06T09:17:44.605Z,6.55
2018-12-06T09:20:14.548Z,6.58
2018-12-06T09:22:44.412Z,6.84
2018-12-06T09:25:20.868Z,6.83
2018-12-06T09:27:46.352Z,7.00
2018-12-06T09:30:16.501Z,6.85
2018-12-06T09:32:46.535Z,6.50
2018-12-06T09:35:16.383Z,6.36
2018-12-06T09:37:47.377Z,6.40
2018-12-06T09:40:45.761Z,6.40
2018-12-06T09:43:15.507Z,6.86
2018-12-06T09:45:45.330Z,7.15
2018-12-06T09:48:21.339Z,7.27
2018-12-06T09:50:51.797Z,7.35
2018-12-06T09:53:27.340Z,7.49
2018-12-06T09:56:03.059Z,7.56
2018-12-06T09:58:38.462Z,7.93
2018-12-06T10:01:15.095Z,8.23
2018-12-06T10:04:13.535Z,8.10
2018-12-06T10:06:43.281Z,8.09
2018-12-06T10:09:21.877Z,8.23
2018-12-06T10:30:19.894Z,8.73
2018-12-06T10:32:49.319Z,8.02
2018-12-06T10:35:18.723Z,7.96
2018-12-06T10:37:54.814Z,7.93
2018-12-06T10:49:57.551Z,7.93
2018-12-06T10:58:34.005Z,8.34
2018-12-06T11:01:13.199Z,8.33
2018-12-06T11:03:51.403Z,8.12
2018-12-06T11:06:26.927Z,8.17
2018-12-06T11:09:01.955Z,7.94
2018-12-06T11:11:34.827Z,8.10
2018-12-06T11:14:08.514Z,8.05
2018-12-06T11:17:40.479Z,8.07
2018-12-06T11:20:24.026Z,7.85
2018-12-06T11:47:40.227Z,7.56
2018-12-06T11:50:21.287Z,7.60
2018-12-06T11:53:03.964Z,7.57
2018-12-06T12:01:31.895Z,7.56
2018-12-06T12:04:06.801Z,7.67
2018-12-06T12:06:39.755Z,7.77
2018-12-06T12:10:50.101Z,7.84
2018-12-06T12:13:35.963Z,8.12
2018-12-06T12:19:11.887Z,8.12
2018-12-06T12:22:01.800Z,8.15
2018-12-06T12:24:41.614Z,8.10
2018-12-06T13:48:28.753Z,7.45
2018-12-06T13:51:03.834Z,7.40
2018-12-06T13:53:49.919Z,7.41
2018-12-06T13:56:31.908Z,7.46
2018-12-06T13:59:09.726Z,7.45
2018-12-06T14:01:43.285Z,7.48
2018-12-06T14:04:16.733Z,7.40
2018-12-06T14:07:05.640Z,7.40
2018-12-06T14:09:38.871Z,7.41
2018-12-06T14:12:14.954Z,7.38
2018-12-06T14:14:50.714Z,7.35
2018-12-06T14:17:20.481Z,7.30
2018-12-06T14:19:55.653Z,7.46
2018-12-06T14:22:31.076Z,7.46
2018-12-06T14:25:00.798Z,7.43
2018-12-06T14:27:30.377Z,7.51
2018-12-06T14:30:00.106Z,7.45
2018-12-06T14:32:33.138Z,7.35
2018-12-06T14:35:03.431Z,7.20
2018-12-06T14:37:39.298Z,7.25
2018-12-06T14:40:12.662Z,7.38
2018-12-06T14:42:51.075Z,7.21
2018-12-06T14:45:27.470Z,7.31
2018-12-06T14:48:15.685Z,7.31
2018-12-06T14:50:55.630Z,7.09
2018-12-06T14:56:50.024Z,6.80
2018-12-06T14:59:37.982Z,6.80
2018-12-06T15:02:07.779Z,6.80
2018-12-06T15:04:37.586Z,6.83
2018-12-06T15:07:13.132Z,6.87
2018-12-06T15:12:51.018Z,6.69
2018-12-06T15:15:20.760Z,6.67
2018-12-06T15:17:50.522Z,6.70
2018-12-06T15:20:20.337Z,6.76
2018-12-06T15:22:49.687Z,6.75
2018-12-06T15:25:19.442Z,6.75
2018-12-06T15:27:49.533Z,6.77
2018-12-06T15:30:19.005Z,6.80
2018-12-06T15:32:48.427Z,6.85
2018-12-06T15:35:18.382Z,6.88
2018-12-06T15:37:48.781Z,6.88
2018-12-06T15:40:18.733Z,6.87
2018-12-06T15:42:48.595Z,6.80
2018-12-06T15:45:18.477Z,6.81
2018-12-06T15:47:52.526Z,6.80
2018-12-06T15:50:39.804Z,6.88
2018-12-06T15:56:22.595Z,6.89
2018-12-06T15:59:08.012Z,6.81
2018-12-06T16:01:51.831Z,6.67
2018-12-06T16:07:28.285Z,6.65
2018-12-06T16:10:13.506Z,6.65
2018-12-06T16:12:46.752Z,6.75
2018-12-06T16:15:45.029Z,6.66
2018-12-06T16:21:48.336Z,6.65
2018-12-06T16:24:20.846Z,6.71
2018-12-06T16:26:56.366Z,6.77
2018-12-06T16:29:31.416Z,6.71
2018-12-06T16:32:04.133Z,6.75
2018-12-06T16:34:37.426Z,6.75
2018-12-06T16:37:12.894Z,6.66
2018-12-06T16:46:03.600Z,6.81
2018-12-06T16:52:00.352Z,6.90
2018-12-06T16:54:41.911Z,6.84
2018-12-06T16:57:11.817Z,6.83
2018-12-06T16:59:41.828Z,6.79
2018-12-06T17:02:11.643Z,6.74
2018-12-06T17:04:41.420Z,6.77
2018-12-06T17:07:11.335Z,6.76
2018-12-06T17:09:41.046Z,6.78
2018-12-06T17:12:10.873Z,6.76
2018-12-06T17:14:40.820Z,6.62
2018-12-06T17:17:10.789Z,6.63
2018-12-06T17:19:40.726Z,6.51
2018-12-06T17:22:11.316Z,6.47
2018-12-06T17:24:41.118Z,6.60
2018-12-06T17:27:12.436Z,6.70
2018-12-06T17:32:43.944Z,6.63
2018-12-06T17:35:15.870Z,6.45
2018-12-06T17:37:45.985Z,6.40
2018-12-06T17:40:16.522Z,6.42
2018-12-06T17:42:47.141Z,6.37
2018-12-06T17:45:17.461Z,6.40
2018-12-06T17:47:47.790Z,6.36
2018-12-06T17:50:18.340Z,6.43
2018-12-06T17:52:47.840Z,6.44
2018-12-06T17:55:17.684Z,6.42
2018-12-06T17:57:48.219Z,6.51
2018-12-06T18:00:18.026Z,6.52
2018-12-06T18:02:47.933Z,6.67
2018-12-06T18:05:17.784Z,6.68
2018-12-06T18:07:49.194Z,6.65
2018-12-06T18:10:19.144Z,6.56
2018-12-06T18:12:49.008Z,6.47
2018-12-06T18:15:19.379Z,6.40
2018-12-06T18:17:49.104Z,6.45
2018-12-06T18:20:22.708Z,6.47
2018-12-06T18:22:54.236Z,6.54
2018-12-06T18:25:31.569Z,6.40
2018-12-06T18:28:17.047Z,6.42
2018-12-06T18:30:53.203Z,6.71
2018-12-06T18:33:27.029Z,6.65
2018-12-06T18:45:09.610Z,6.55
2018-12-06T18:53:43.887Z,6.77
2018-12-06T18:59:19.780Z,6.72
2018-12-06T19:05:06.927Z,6.83
2018-12-06T19:10:53.215Z,6.83
2018-12-06T19:16:46.304Z,6.82
2018-12-06T19:33:48.475Z,6.89
2018-12-06T19:39:22.199Z,7.01
2018-12-06T19:41:52.132Z,7.05
2018-12-06T19:44:22.291Z,7.09
2018-12-06T19:50:26.986Z,7.09
2018-12-06T19:56:17.651Z,7.09
2018-12-06T19:58:53.867Z,7.16
2018-12-06T20:01:24.023Z,7.23
2018-12-06T20:03:54.082Z,7.20
2018-12-06T20:06:24.142Z,7.18
2018-12-06T20:08:54.024Z,7.20
2018-12-06T20:11:24.011Z,7.30
2018-12-06T20:13:54.011Z,7.32
2018-12-06T20:16:42.450Z,7.36
2018-12-06T20:19:17.231Z,7.36
2018-12-06T20:22:01.003Z,7.38
2018-12-06T20:24:50.685Z,7.39
2018-12-06T20:27:33.907Z,7.44
2018-12-06T20:30:04.345Z,7.46
2018-12-06T20:32:34.495Z,7.49
2018-12-06T20:35:04.482Z,7.61
2018-12-06T20:37:34.479Z,7.64
2018-12-06T20:40:05.193Z,7.62
2018-12-06T20:42:35.335Z,7.61
2018-12-06T20:45:05.577Z,7.62
2018-12-06T20:47:35.479Z,7.68
2018-12-06T20:50:06.038Z,7.62
2018-12-06T20:52:42.203Z,7.70
2018-12-06T20:55:12.236Z,7.69
2018-12-06T20:57:42.323Z,7.73
2018-12-06T21:00:12.905Z,7.78
2018-12-06T21:02:42.744Z,7.76
2018-12-06T21:05:14.196Z,7.76
2018-12-06T21:07:44.888Z,7.78
2018-12-06T21:10:15.880Z,7.81
2018-12-06T21:12:46.159Z,7.90
2018-12-06T21:15:16.239Z,7.90
2018-12-06T21:17:48.143Z,7.91
2018-12-06T21:20:18.014Z,7.92
2018-12-06T21:22:47.955Z,7.95
2018-12-06T21:25:17.861Z,8.00
2018-12-06T21:27:47.696Z,8.01
2018-12-06T21:30:18.351Z,8.04
2018-12-06T21:32:48.270Z,8.08
2018-12-06T21:35:24.286Z,8.08
2018-12-06T21:38:03.918Z,8.14
2018-12-06T21:40:35.818Z,8.15
2018-12-06T21:43:06.766Z,8.17
2018-12-06T21:45:39.657Z,8.17
2018-12-06T21:48:15.096Z,8.18
2018-12-06T21:50:56.402Z,8.21
2018-12-06T21:53:28.945Z,8.23
2018-12-06T21:56:08.311Z,8.30
2018-12-06T21:58:49.789Z,8.33
2018-12-06T22:03:57.742Z,8.39
2018-12-06T22:06:32.074Z,8.42
2018-12-06T22:09:07.140Z,8.42
2018-12-06T22:11:40.146Z,8.46
2018-12-06T22:14:11.427Z,8.47
2018-12-06T22:16:44.495Z,8.50
2018-12-06T22:19:15.599Z,8.56
2018-12-06T22:21:48.734Z,8.59
2018-12-06T22:24:18.811Z,8.64
2018-12-06T22:26:51.996Z,8.68
2018-12-06T22:29:27.547Z,8.68
2018-12-06T22:32:00.467Z,8.72
2018-12-06T22:34:31.538Z,8.74
2018-12-06T22:37:05.362Z,8.74
2018-12-06T22:39:38.772Z,8.76
2018-12-06T22:42:11.898Z,8.77
2018-12-06T22:44:43.383Z,8.79
2018-12-06T22:47:18.153Z,8.86
2018-12-06T22:49:54.476Z,8.91
2018-12-06T22:52:38.598Z,8.92
2018-12-06T22:55:11.075Z,8.88
2018-12-06T23:01:04.943Z,8.87
2018-12-06T23:03:41.262Z,8.92
2018-12-06T23:06:21.499Z,8.95
2018-12-06T23:08:55.937Z,8.92
2018-12-06T23:11:25.821Z,8.92
2018-12-06T23:13:55.653Z,8.96
2018-12-06T23:16:31.678Z,8.97
2018-12-06T23:19:03.859Z,9.00
2018-12-06T23:21:33.773Z,9.03
2018-12-06T23:24:04.689Z,9.06
2018-12-06T23:26:52.418Z,9.09
2018-12-06T23:29:27.983Z,9.12
2018-12-06T23:32:04.782Z,9.14
2018-12-06T23:44:00.647Z,9.18
2018-12-06T23:49:40.122Z,9.21
2018-12-06T23:52:32.088Z,9.23
